sensor_id;sensor_type;location;lat;lon;timestamp;pressure;altitude;pressure_sealevel;temperature;humidity
61394;BME280;48555;50.952;-0.120;2023-08-01T00:01:24;99725.88;;;17.60;86.49
61394;BME280;48555;50.952;-0.120;2023-08-01T00:03:49;99720.75;;;17.58;86.50
61394;BME280;48555;50.952;-0.120;2023-08-01T00:06:14;99719.13;;;17.57;86.27
61394;BME280;48555;50.952;-0.120;2023-08-01T00:08:40;99726.25;;;17.57;86.59
61394;BME280;48555;50.952;-0.120;2023-08-01T00:11:05;99720.94;;;17.57;86.34
61394;BME280;48555;50.952;-0.120;2023-08-01T00:13:30;99720.28;;;17.55;86.28
61394;BME280;48555;50.952;-0.120;2023-08-01T00:15:56;99717.00;;;17.53;86.36
61394;BME280;48555;50.952;-0.120;2023-08-01T00:18:21;99719.38;;;17.47;86.48
61394;BME280;48555;50.952;-0.120;2023-08-01T00:20:47;99722.19;;;17.46;86.50
61394;BME280;48555;50.952;-0.120;2023-08-01T00:23:12;99723.22;;;17.45;86.52
61394;BME280;48555;50.952;-0.120;2023-08-01T00:25:37;99720.09;;;17.41;86.56
61394;BME280;48555;50.952;-0.120;2023-08-01T00:28:03;99724.53;;;17.41;86.47
61394;BME280;48555;50.952;-0.120;2023-08-01T00:30:28;99729.56;;;17.36;86.59
61394;BME280;48555;50.952;-0.120;2023-08-01T00:32:53;99725.63;;;17.32;86.70
61394;BME280;48555;50.952;-0.120;2023-08-01T00:35:19;99725.97;;;17.29;87.24
61394;BME280;48555;50.952;-0.120;2023-08-01T00:37:44;99735.72;;;17.28;87.16
61394;BME280;48555;50.952;-0.120;2023-08-01T00:40:10;99725.34;;;17.27;87.33
61394;BME280;48555;50.952;-0.120;2023-08-01T00:42:36;99728.47;;;17.30;87.32
61394;BME280;48555;50.952;-0.120;2023-08-01T00:45:03;99721.34;;;17.31;87.37
61394;BME280;48555;50.952;-0.120;2023-08-01T00:47:29;99710.78;;;17.31;87.67
61394;BME280;48555;50.952;-0.120;2023-08-01T00:49:54;99711.44;;;17.33;87.44
61394;BME280;48555;50.952;-0.120;2023-08-01T00:52:20;99717.25;;;17.28;87.73
61394;BME280;48555;50.952;-0.120;2023-08-01T00:54:45;99718.06;;;17.29;87.69
61394;BME280;48555;50.952;-0.120;2023-08-01T00:57:11;99720.88;;;17.27;87.52
61394;BME280;48555;50.952;-0.120;2023-08-01T00:59:36;99712.97;;;17.27;87.83
61394;BME280;48555;50.952;-0.120;2023-08-01T01:02:02;99719.41;;;17.24;87.87
61394;BME280;48555;50.952;-0.120;2023-08-01T01:04:27;99713.84;;;17.19;87.60
61394;BME280;48555;50.952;-0.120;2023-08-01T01:07:03;99719.13;;;17.19;87.77
61394;BME280;48555;50.952;-0.120;2023-08-01T01:09:31;99714.19;;;17.16;87.82
61394;BME280;48555;50.952;-0.120;2023-08-01T01:11:59;99721.97;;;17.18;88.23
61394;BME280;48555;50.952;-0.120;2023-08-01T01:14:26;99720.75;;;17.20;88.26
61394;BME280;48555;50.952;-0.120;2023-08-01T01:16:51;99725.53;;;17.25;88.50
61394;BME280;48555;50.952;-0.120;2023-08-01T01:19:17;99724.00;;;17.31;88.56
61394;BME280;48555;50.952;-0.120;2023-08-01T01:21:42;99724.44;;;17.34;88.59
61394;BME280;48555;50.952;-0.120;2023-08-01T01:24:10;99720.78;;;17.35;88.49
61394;BME280;48555;50.952;-0.120;2023-08-01T01:26:36;99723.94;;;17.39;88.63
61394;BME280;48555;50.952;-0.120;2023-08-01T01:29:04;99719.63;;;17.38;88.76
61394;BME280;48555;50.952;-0.120;2023-08-01T01:31:31;99718.81;;;17.37;88.49
61394;BME280;48555;50.952;-0.120;2023-08-01T01:33:57;99721.28;;;17.39;88.60
61394;BME280;48555;50.952;-0.120;2023-08-01T01:36:23;99720.28;;;17.40;88.54
61394;BME280;48555;50.952;-0.120;2023-08-01T01:38:48;99726.00;;;17.43;88.50
61394;BME280;48555;50.952;-0.120;2023-08-01T01:41:13;99718.81;;;17.37;88.30
61394;BME280;48555;50.952;-0.120;2023-08-01T01:43:38;99724.03;;;17.45;88.21
61394;BME280;48555;50.952;-0.120;2023-08-01T01:46:04;99723.66;;;17.48;88.09
61394;BME280;48555;50.952;-0.120;2023-08-01T01:48:29;99713.91;;;17.49;87.98
61394;BME280;48555;50.952;-0.120;2023-08-01T01:50:55;99722.66;;;17.49;87.97
61394;BME280;48555;50.952;-0.120;2023-08-01T01:53:20;99720.84;;;17.50;87.73
61394;BME280;48555;50.952;-0.120;2023-08-01T01:55:46;99720.84;;;17.50;87.66
61394;BME280;48555;50.952;-0.120;2023-08-01T01:58:11;99723.13;;;17.53;87.60
61394;BME280;48555;50.952;-0.120;2023-08-01T02:00:36;99720.75;;;17.58;87.33
61394;BME280;48555;50.952;-0.120;2023-08-01T02:03:02;99716.28;;;17.59;87.00
61394;BME280;48555;50.952;-0.120;2023-08-01T02:05:28;99719.78;;;17.59;86.82
61394;BME280;48555;50.952;-0.120;2023-08-01T02:07:54;99722.22;;;17.61;86.73
61394;BME280;48555;50.952;-0.120;2023-08-01T02:10:19;99728.53;;;17.60;86.61
61394;BME280;48555;50.952;-0.120;2023-08-01T02:12:44;99726.03;;;17.58;86.50
61394;BME280;48555;50.952;-0.120;2023-08-01T02:15:10;99729.03;;;17.55;86.48
61394;BME280;48555;50.952;-0.120;2023-08-01T02:17:35;99729.69;;;17.57;86.30
61394;BME280;48555;50.952;-0.120;2023-08-01T02:20:00;99729.69;;;17.57;86.15
61394;BME280;48555;50.952;-0.120;2023-08-01T02:22:26;99735.16;;;17.56;86.18
61394;BME280;48555;50.952;-0.120;2023-08-01T02:24:52;99727.78;;;17.51;86.00
61394;BME280;48555;50.952;-0.120;2023-08-01T02:27:17;99725.84;;;17.45;85.90
61394;BME280;48555;50.952;-0.120;2023-08-01T02:29:42;99733.06;;;17.51;85.91
61394;BME280;48555;50.952;-0.120;2023-08-01T02:32:09;99729.25;;;17.54;85.80
61394;BME280;48555;50.952;-0.120;2023-08-01T02:34:34;99724.78;;;17.54;85.74
61394;BME280;48555;50.952;-0.120;2023-08-01T02:37:00;99723.94;;;17.54;85.48
61394;BME280;48555;50.952;-0.120;2023-08-01T02:39:25;99723.94;;;17.54;85.74
61394;BME280;48555;50.952;-0.120;2023-08-01T02:41:50;99731.16;;;17.60;85.63
61394;BME280;48555;50.952;-0.120;2023-08-01T02:44:16;99732.78;;;17.61;85.58
61394;BME280;48555;50.952;-0.120;2023-08-01T02:46:41;99732.16;;;17.59;85.47
61394;BME280;48555;50.952;-0.120;2023-08-01T02:49:07;99731.97;;;17.60;85.78
61394;BME280;48555;50.952;-0.120;2023-08-01T02:51:32;99733.81;;;17.60;85.58
61394;BME280;48555;50.952;-0.120;2023-08-01T02:53:57;99727.88;;;17.58;85.56
61394;BME280;48555;50.952;-0.120;2023-08-01T02:56:23;99730.72;;;17.56;85.68
61394;BME280;48555;50.952;-0.120;2023-08-01T02:58:48;99730.50;;;17.58;85.75
61394;BME280;48555;50.952;-0.120;2023-08-01T03:01:13;99726.69;;;17.60;85.43
61394;BME280;48555;50.952;-0.120;2023-08-01T03:03:39;99740.91;;;17.59;85.47
61394;BME280;48555;50.952;-0.120;2023-08-01T03:06:04;99737.44;;;17.59;85.51
61394;BME280;48555;50.952;-0.120;2023-08-01T03:08:30;99738.28;;;17.59;85.72
61394;BME280;48555;50.952;-0.120;2023-08-01T03:10:56;99739.91;;;17.60;85.76
61394;BME280;48555;50.952;-0.120;2023-08-01T03:13:22;99739.75;;;17.62;85.44
61394;BME280;48555;50.952;-0.120;2023-08-01T03:15:47;99741.38;;;17.63;85.58
61394;BME280;48555;50.952;-0.120;2023-08-01T03:18:12;99742.03;;;17.65;85.33
61394;BME280;48555;50.952;-0.120;2023-08-01T03:20:38;99734.72;;;17.67;85.15
61394;BME280;48555;50.952;-0.120;2023-08-01T03:23:03;99733.53;;;17.69;85.17
61394;BME280;48555;50.952;-0.120;2023-08-01T03:25:29;99732.72;;;17.69;85.08
61394;BME280;48555;50.952;-0.120;2023-08-01T03:27:56;99732.72;;;17.69;84.87
61394;BME280;48555;50.952;-0.120;2023-08-01T03:30:21;99740.44;;;17.70;84.69
61394;BME280;48555;50.952;-0.120;2023-08-01T03:32:47;99738.00;;;17.69;84.72
61394;BME280;48555;50.952;-0.120;2023-08-01T03:35:12;99735.88;;;17.64;85.00
61394;BME280;48555;50.952;-0.120;2023-08-01T03:37:41;99735.53;;;17.67;84.84
61394;BME280;48555;50.952;-0.120;2023-08-01T03:40:07;99742.66;;;17.67;84.65
61394;BME280;48555;50.952;-0.120;2023-08-01T03:42:34;99736.75;;;17.65;84.68
61394;BME280;48555;50.952;-0.120;2023-08-01T03:45:00;99731.25;;;17.66;84.94
61394;BME280;48555;50.952;-0.120;2023-08-01T03:47:25;99733.09;;;17.66;84.53
61394;BME280;48555;50.952;-0.120;2023-08-01T03:49:50;99723.31;;;17.66;84.46
61394;BME280;48555;50.952;-0.120;2023-08-01T03:52:15;99730.06;;;17.69;84.34
61394;BME280;48555;50.952;-0.120;2023-08-01T03:54:41;99732.06;;;17.67;84.39
61394;BME280;48555;50.952;-0.120;2023-08-01T03:57:06;99722.06;;;17.62;84.23
61394;BME280;48555;50.952;-0.120;2023-08-01T03:59:31;99718.59;;;17.62;84.17
61394;BME280;48555;50.952;-0.120;2023-08-01T04:01:57;99711.66;;;17.61;84.06
61394;BME280;48555;50.952;-0.120;2023-08-01T04:04:23;99719.78;;;17.59;84.07
61394;BME280;48555;50.952;-0.120;2023-08-01T04:06:48;99720.59;;;17.60;84.04
61394;BME280;48555;50.952;-0.120;2023-08-01T04:09:13;99712.38;;;17.55;84.01
61394;BME280;48555;50.952;-0.120;2023-08-01T04:11:39;99726.69;;;17.60;84.14
61394;BME280;48555;50.952;-0.120;2023-08-01T04:14:04;99725.69;;;17.61;84.25
61394;BME280;48555;50.952;-0.120;2023-08-01T04:16:29;99730.81;;;17.63;84.39
61394;BME280;48555;50.952;-0.120;2023-08-01T04:18:55;99723.88;;;17.62;84.25
61394;BME280;48555;50.952;-0.120;2023-08-01T04:21:20;99731.81;;;17.62;84.12
61394;BME280;48555;50.952;-0.120;2023-08-01T04:23:46;99723.41;;;17.58;84.25
61394;BME280;48555;50.952;-0.120;2023-08-01T04:26:11;99726.69;;;17.60;84.36
61394;BME280;48555;50.952;-0.120;2023-08-01T04:28:36;99717.59;;;17.63;84.04
61394;BME280;48555;50.952;-0.120;2023-08-01T04:31:02;99722.88;;;17.63;84.20
61394;BME280;48555;50.952;-0.120;2023-08-01T04:33:27;99728.31;;;17.61;83.97
61394;BME280;48555;50.952;-0.120;2023-08-01T04:35:53;99724.22;;;17.59;83.93
61394;BME280;48555;50.952;-0.120;2023-08-01T04:38:18;99720.38;;;17.61;83.82
61394;BME280;48555;50.952;-0.120;2023-08-01T04:40:44;99726.53;;;17.62;83.89
61394;BME280;48555;50.952;-0.120;2023-08-01T04:43:10;99716.75;;;17.62;83.51
61394;BME280;48555;50.952;-0.120;2023-08-01T04:45:36;99722.06;;;17.62;83.60
61394;BME280;48555;50.952;-0.120;2023-08-01T04:48:01;99726.69;;;17.60;83.25
61394;BME280;48555;50.952;-0.120;2023-08-01T04:50:27;99724.22;;;17.59;83.16
61394;BME280;48555;50.952;-0.120;2023-08-01T04:52:52;99724.56;;;17.56;83.28
61394;BME280;48555;50.952;-0.120;2023-08-01T04:55:17;99724.78;;;17.54;83.12
61394;BME280;48555;50.952;-0.120;2023-08-01T04:57:43;99731.06;;;17.53;83.14
61394;BME280;48555;50.952;-0.120;2023-08-01T05:00:09;99712.25;;;17.33;83.09
61394;BME280;48555;50.952;-0.120;2023-08-01T05:02:35;99729.75;;;17.49;83.36
61394;BME280;48555;50.952;-0.120;2023-08-01T05:05:00;99731.69;;;17.55;83.35
61394;BME280;48555;50.952;-0.120;2023-08-01T05:07:25;99734.63;;;17.60;83.67
61394;BME280;48555;50.952;-0.120;2023-08-01T05:09:50;99744.84;;;17.63;83.67
61394;BME280;48555;50.952;-0.120;2023-08-01T05:12:16;99747.94;;;17.67;83.59
61394;BME280;48555;50.952;-0.120;2023-08-01T05:14:41;99746.09;;;17.67;83.55
61394;BME280;48555;50.952;-0.120;2023-08-01T05:17:07;99747.41;;;17.71;83.44
61394;BME280;48555;50.952;-0.120;2023-08-01T05:19:32;99753.63;;;17.79;83.32
61394;BME280;48555;50.952;-0.120;2023-08-01T05:21:57;99750.47;;;17.83;83.07
61394;BME280;48555;50.952;-0.120;2023-08-01T05:24:23;99756.41;;;17.85;82.90
61394;BME280;48555;50.952;-0.120;2023-08-01T05:26:48;99757.75;;;17.96;82.85
61394;BME280;48555;50.952;-0.120;2023-08-01T05:29:13;99753.19;;;18.05;82.66
61394;BME280;48555;50.952;-0.120;2023-08-01T05:31:39;99759.66;;;18.17;82.45
61394;BME280;48555;50.952;-0.120;2023-08-01T05:34:04;99760.56;;;18.54;81.85
61394;BME280;48555;50.952;-0.120;2023-08-01T05:36:29;99768.09;;;19.08;80.76
61394;BME280;48555;50.952;-0.120;2023-08-01T05:38:55;99770.81;;;19.64;78.83
61394;BME280;48555;50.952;-0.120;2023-08-01T05:41:20;99756.28;;;20.16;77.02
61394;BME280;48555;50.952;-0.120;2023-08-01T05:43:48;99757.31;;;20.57;74.17
61394;BME280;48555;50.952;-0.120;2023-08-01T05:46:14;99743.47;;;20.88;73.23
61394;BME280;48555;50.952;-0.120;2023-08-01T05:48:39;99750.31;;;21.37;71.91
61394;BME280;48555;50.952;-0.120;2023-08-01T05:51:05;99746.00;;;21.69;69.89
61394;BME280;48555;50.952;-0.120;2023-08-01T05:53:30;99764.97;;;22.13;68.37
61394;BME280;48555;50.952;-0.120;2023-08-01T05:55:56;99759.19;;;22.36;67.02
61394;BME280;48555;50.952;-0.120;2023-08-01T05:58:21;99759.06;;;22.56;65.67
61394;BME280;48555;50.952;-0.120;2023-08-01T06:00:46;99769.47;;;22.71;64.95
61394;BME280;48555;50.952;-0.120;2023-08-01T06:03:12;99763.81;;;22.99;63.95
61394;BME280;48555;50.952;-0.120;2023-08-01T06:05:37;99774.91;;;23.27;62.78
61394;BME280;48555;50.952;-0.120;2023-08-01T06:08:03;99768.19;;;23.43;60.95
61394;BME280;48555;50.952;-0.120;2023-08-01T06:10:28;99779.28;;;23.72;60.46
61394;BME280;48555;50.952;-0.120;2023-08-01T06:12:54;99781.63;;;24.05;59.31
61394;BME280;48555;50.952;-0.120;2023-08-01T06:15:19;99770.94;;;24.23;58.37
61394;BME280;48555;50.952;-0.120;2023-08-01T06:17:46;99780.31;;;24.51;57.36
61394;BME280;48555;50.952;-0.120;2023-08-01T06:20:11;99775.47;;;24.60;55.37
61394;BME280;48555;50.952;-0.120;2023-08-01T06:22:37;99776.50;;;24.40;56.10
61394;BME280;48555;50.952;-0.120;2023-08-01T06:25:02;99783.34;;;24.36;56.41
61394;BME280;48555;50.952;-0.120;2023-08-01T06:27:27;99779.63;;;24.19;56.16
61394;BME280;48555;50.952;-0.120;2023-08-01T06:29:53;99789.94;;;24.34;56.64
61394;BME280;48555;50.952;-0.120;2023-08-01T06:32:18;99790.03;;;24.27;56.16
61394;BME280;48555;50.952;-0.120;2023-08-01T06:34:43;99785.31;;;24.41;55.63
61394;BME280;48555;50.952;-0.120;2023-08-01T06:37:09;99791.50;;;24.60;55.20
61394;BME280;48555;50.952;-0.120;2023-08-01T06:39:35;99796.00;;;24.47;55.25
61394;BME280;48555;50.952;-0.120;2023-08-01T06:42:00;99801.06;;;24.12;55.72
61394;BME280;48555;50.952;-0.120;2023-08-01T06:44:26;99796.22;;;23.84;55.81
61394;BME280;48555;50.952;-0.120;2023-08-01T06:46:51;99795.59;;;23.82;56.26
61394;BME280;48555;50.952;-0.120;2023-08-01T06:49:16;99797.91;;;23.97;55.88
61394;BME280;48555;50.952;-0.120;2023-08-01T06:51:42;99800.03;;;24.13;55.75
61394;BME280;48555;50.952;-0.120;2023-08-01T06:54:08;99797.63;;;24.05;55.83
61394;BME280;48555;50.952;-0.120;2023-08-01T06:56:33;99802.34;;;23.85;55.83
61394;BME280;48555;50.952;-0.120;2023-08-01T06:58:58;99795.25;;;23.47;55.70
61394;BME280;48555;50.952;-0.120;2023-08-01T07:01:24;99808.22;;;23.11;56.28
61394;BME280;48555;50.952;-0.120;2023-08-01T07:03:49;99807.56;;;22.78;57.08
61394;BME280;48555;50.952;-0.120;2023-08-01T07:06:17;99805.84;;;22.52;57.77
61394;BME280;48555;50.952;-0.120;2023-08-01T07:08:42;99803.44;;;22.23;57.76
61394;BME280;48555;50.952;-0.120;2023-08-01T07:11:08;99803.88;;;21.94;58.55
61394;BME280;48555;50.952;-0.120;2023-08-01T07:13:33;99798.38;;;21.75;59.38
61394;BME280;48555;50.952;-0.120;2023-08-01T07:15:58;99792.88;;;21.50;60.15
61394;BME280;48555;50.952;-0.120;2023-08-01T07:18:24;99796.16;;;21.46;60.47
61394;BME280;48555;50.952;-0.120;2023-08-01T07:20:59;99794.72;;;21.37;61.19
61394;BME280;48555;50.952;-0.120;2023-08-01T07:23:24;99801.22;;;21.27;61.17
61394;BME280;48555;50.952;-0.120;2023-08-01T07:25:50;99803.66;;;21.22;61.15
61394;BME280;48555;50.952;-0.120;2023-08-01T07:28:15;99802.44;;;21.25;61.73
61394;BME280;48555;50.952;-0.120;2023-08-01T07:30:40;99811.66;;;21.36;61.52
61394;BME280;48555;50.952;-0.120;2023-08-01T07:33:05;99804.13;;;21.46;61.17
61394;BME280;48555;50.952;-0.120;2023-08-01T07:35:31;99801.28;;;21.54;60.69
61394;BME280;48555;50.952;-0.120;2023-08-01T07:37:56;99802.28;;;21.60;60.43
61394;BME280;48555;50.952;-0.120;2023-08-01T07:40:21;99801.69;;;21.58;59.98
61394;BME280;48555;50.952;-0.120;2023-08-01T07:42:47;99802.06;;;21.61;59.40
61394;BME280;48555;50.952;-0.120;2023-08-01T07:45:12;99803.72;;;21.62;59.52
61394;BME280;48555;50.952;-0.120;2023-08-01T07:47:37;99804.31;;;21.64;59.55
61394;BME280;48555;50.952;-0.120;2023-08-01T07:50:03;99808.00;;;21.76;59.17
61394;BME280;48555;50.952;-0.120;2023-08-01T07:52:29;99818.03;;;22.01;59.40
61394;BME280;48555;50.952;-0.120;2023-08-01T07:54:54;99818.84;;;22.21;59.19
61394;BME280;48555;50.952;-0.120;2023-08-01T07:57:22;99818.69;;;22.61;58.30
61394;BME280;48555;50.952;-0.120;2023-08-01T07:59:47;99789.16;;;22.70;58.08
61394;BME280;48555;50.952;-0.120;2023-08-01T08:02:13;99813.91;;;22.83;56.69
61394;BME280;48555;50.952;-0.120;2023-08-01T08:07:03;99808.09;;;23.00;55.65
61394;BME280;48555;50.952;-0.120;2023-08-01T08:09:29;99815.84;;;23.08;55.63
61394;BME280;48555;50.952;-0.120;2023-08-01T08:11:54;99814.59;;;23.10;55.16
61394;BME280;48555;50.952;-0.120;2023-08-01T08:14:22;99819.56;;;23.07;55.39
61394;BME280;48555;50.952;-0.120;2023-08-01T08:16:48;99817.88;;;23.12;55.44
61394;BME280;48555;50.952;-0.120;2023-08-01T08:19:13;99821.91;;;23.22;55.18
61394;BME280;48555;50.952;-0.120;2023-08-01T08:21:39;99816.66;;;23.40;55.01
61394;BME280;48555;50.952;-0.120;2023-08-01T08:24:04;99824.28;;;23.62;54.47
61394;BME280;48555;50.952;-0.120;2023-08-01T08:26:30;99816.22;;;23.75;54.67
61394;BME280;48555;50.952;-0.120;2023-08-01T08:28:56;99822.47;;;23.87;53.67
61394;BME280;48555;50.952;-0.120;2023-08-01T08:31:22;99811.28;;;23.97;53.42
61394;BME280;48555;50.952;-0.120;2023-08-01T08:33:47;99824.34;;;24.05;53.33
61394;BME280;48555;50.952;-0.120;2023-08-01T08:36:13;99822.97;;;24.21;52.09
61394;BME280;48555;50.952;-0.120;2023-08-01T08:38:38;99821.16;;;24.15;52.56
61394;BME280;48555;50.952;-0.120;2023-08-01T08:41:11;99818.81;;;24.07;52.36
61394;BME280;48555;50.952;-0.120;2023-08-01T08:43:39;99826.09;;;24.18;51.93
61394;BME280;48555;50.952;-0.120;2023-08-01T08:46:05;99834.69;;;24.20;51.07
61394;BME280;48555;50.952;-0.120;2023-08-01T08:48:31;99827.19;;;24.29;50.77
61394;BME280;48555;50.952;-0.120;2023-08-01T08:50:58;99832.81;;;24.20;51.20
61394;BME280;48555;50.952;-0.120;2023-08-01T08:53:25;99824.50;;;24.10;51.59
61394;BME280;48555;50.952;-0.120;2023-08-01T08:55:51;99828.50;;;24.01;51.20
61394;BME280;48555;50.952;-0.120;2023-08-01T08:58:16;99833.16;;;23.87;50.88
61394;BME280;48555;50.952;-0.120;2023-08-01T09:00:43;99832.41;;;23.80;51.54
61394;BME280;48555;50.952;-0.120;2023-08-01T09:03:08;99837.34;;;23.76;51.73
61394;BME280;48555;50.952;-0.120;2023-08-01T09:05:44;99826.31;;;23.66;52.36
61394;BME280;48555;50.952;-0.120;2023-08-01T09:08:16;99826.81;;;23.56;52.27
61394;BME280;48555;50.952;-0.120;2023-08-01T09:10:43;99825.47;;;23.41;51.64
61394;BME280;48555;50.952;-0.120;2023-08-01T09:13:08;99829.88;;;23.28;51.92
61394;BME280;48555;50.952;-0.120;2023-08-01T09:15:35;99830.16;;;23.13;52.09
61394;BME280;48555;50.952;-0.120;2023-08-01T09:18:06;99823.72;;;23.28;52.31
61394;BME280;48555;50.952;-0.120;2023-08-01T09:20:42;99815.47;;;23.36;52.72
61394;BME280;48555;50.952;-0.120;2023-08-01T09:23:09;99819.06;;;23.48;52.18
61394;BME280;48555;50.952;-0.120;2023-08-01T09:25:35;99823.47;;;23.61;52.14
61394;BME280;48555;50.952;-0.120;2023-08-01T09:28:00;99823.53;;;23.54;52.36
61394;BME280;48555;50.952;-0.120;2023-08-01T09:30:26;99821.25;;;23.58;51.71
61394;BME280;48555;50.952;-0.120;2023-08-01T09:32:56;99821.31;;;23.51;51.35
61394;BME280;48555;50.952;-0.120;2023-08-01T09:35:22;99821.34;;;23.45;50.47
61394;BME280;48555;50.952;-0.120;2023-08-01T09:37:48;99820.38;;;23.39;50.28
61394;BME280;48555;50.952;-0.120;2023-08-01T09:40:14;99830.78;;;23.47;51.13
61394;BME280;48555;50.952;-0.120;2023-08-01T09:42:43;99832.16;;;23.56;51.37
61394;BME280;48555;50.952;-0.120;2023-08-01T09:45:14;99825.94;;;23.63;51.20
61394;BME280;48555;50.952;-0.120;2023-08-01T09:47:40;99828.69;;;23.81;51.70
61394;BME280;48555;50.952;-0.120;2023-08-01T09:50:06;99821.66;;;23.87;49.96
61394;BME280;48555;50.952;-0.120;2023-08-01T09:52:32;99813.28;;;23.83;49.86
61394;BME280;48555;50.952;-0.120;2023-08-01T09:54:58;99828.75;;;23.74;49.42
61394;BME280;48555;50.952;-0.120;2023-08-01T09:57:28;99843.50;;;23.77;49.08
61394;BME280;48555;50.952;-0.120;2023-08-01T09:59:56;99831.63;;;23.73;49.42
61394;BME280;48555;50.952;-0.120;2023-08-01T10:02:24;99830.41;;;23.69;50.12
61394;BME280;48555;50.952;-0.120;2023-08-01T10:04:52;99835.41;;;23.58;49.74
61394;BME280;48555;50.952;-0.120;2023-08-01T10:07:23;99834.81;;;23.56;50.28
61394;BME280;48555;50.952;-0.120;2023-08-01T10:09:49;99832.97;;;23.57;50.33
61394;BME280;48555;50.952;-0.120;2023-08-01T10:12:17;99831.16;;;23.51;49.98
61394;BME280;48555;50.952;-0.120;2023-08-01T10:14:46;99833.84;;;23.51;50.03
61394;BME280;48555;50.952;-0.120;2023-08-01T10:17:11;99821.91;;;23.53;50.79
61394;BME280;48555;50.952;-0.120;2023-08-01T10:19:37;99827.25;;;23.53;50.40
61394;BME280;48555;50.952;-0.120;2023-08-01T10:22:04;99828.00;;;23.61;50.67
61394;BME280;48555;50.952;-0.120;2023-08-01T10:24:31;99820.97;;;23.66;51.36
61394;BME280;48555;50.952;-0.120;2023-08-01T10:26:58;99820.38;;;23.71;51.31
61394;BME280;48555;50.952;-0.120;2023-08-01T10:29:34;99811.03;;;23.80;51.16
61394;BME280;48555;50.952;-0.120;2023-08-01T10:32:00;99815.00;;;23.96;51.52
61394;BME280;48555;50.952;-0.120;2023-08-01T10:34:26;99820.88;;;24.05;50.47
61394;BME280;48555;50.952;-0.120;2023-08-01T10:36:56;99814.91;;;24.02;49.74
61394;BME280;48555;50.952;-0.120;2023-08-01T10:39:22;99825.59;;;24.02;49.73
61394;BME280;48555;50.952;-0.120;2023-08-01T10:41:57;99831.56;;;24.05;49.16
61394;BME280;48555;50.952;-0.120;2023-08-01T10:44:22;99830.94;;;24.02;49.19
61394;BME280;48555;50.952;-0.120;2023-08-01T10:46:56;99829.03;;;24.10;50.04
61394;BME280;48555;50.952;-0.120;2023-08-01T10:49:42;99830.66;;;24.29;49.86
61394;BME280;48555;50.952;-0.120;2023-08-01T10:52:19;99832.00;;;24.38;50.20
61394;BME280;48555;50.952;-0.120;2023-08-01T10:54:45;99829.03;;;24.53;50.19
61394;BME280;48555;50.952;-0.120;2023-08-01T10:57:17;99827.50;;;24.76;50.18
61394;BME280;48555;50.952;-0.120;2023-08-01T10:59:44;99831.78;;;24.95;49.61
61394;BME280;48555;50.952;-0.120;2023-08-01T11:02:09;99823.50;;;24.97;47.86
61394;BME280;48555;50.952;-0.120;2023-08-01T11:04:34;99835.72;;;24.92;47.91
61394;BME280;48555;50.952;-0.120;2023-08-01T11:07:01;99827.91;;;24.91;48.36
61394;BME280;48555;50.952;-0.120;2023-08-01T11:09:27;99820.28;;;24.95;48.64
61394;BME280;48555;50.952;-0.120;2023-08-01T11:11:55;99828.06;;;24.96;48.82
61394;BME280;48555;50.952;-0.120;2023-08-01T11:14:25;99835.47;;;24.94;48.54
61394;BME280;48555;50.952;-0.120;2023-08-01T11:16:53;99833.34;;;24.84;48.96
61394;BME280;48555;50.952;-0.120;2023-08-01T11:19:20;99844.34;;;24.76;48.84
61394;BME280;48555;50.952;-0.120;2023-08-01T11:21:46;99846.38;;;24.62;49.22
61394;BME280;48555;50.952;-0.120;2023-08-01T11:24:12;99852.69;;;24.50;49.35
61394;BME280;48555;50.952;-0.120;2023-08-01T11:26:42;99850.59;;;24.33;49.11
61394;BME280;48555;50.952;-0.120;2023-08-01T11:29:07;99846.84;;;24.16;49.50
61394;BME280;48555;50.952;-0.120;2023-08-01T11:31:32;99851.13;;;23.98;50.71
61394;BME280;48555;50.952;-0.120;2023-08-01T11:33:58;99850.84;;;23.82;50.97
61394;BME280;48555;50.952;-0.120;2023-08-01T11:36:28;99845.81;;;23.67;51.24
61394;BME280;48555;50.952;-0.120;2023-08-01T11:38:56;99848.25;;;23.75;52.42
61394;BME280;48555;50.952;-0.120;2023-08-01T11:41:23;99849.69;;;23.96;53.52
61394;BME280;48555;50.952;-0.120;2023-08-01T11:43:48;99843.50;;;24.20;54.09
61394;BME280;48555;50.952;-0.120;2023-08-01T11:46:14;99836.06;;;24.47;53.48
61394;BME280;48555;50.952;-0.120;2023-08-01T11:48:44;99839.38;;;24.61;52.90
61394;BME280;48555;50.952;-0.120;2023-08-01T11:51:10;99829.09;;;24.65;51.89
61394;BME280;48555;50.952;-0.120;2023-08-01T11:53:36;99833.69;;;24.58;49.97
61394;BME280;48555;50.952;-0.120;2023-08-01T11:56:06;99826.03;;;24.43;49.02
61394;BME280;48555;50.952;-0.120;2023-08-01T11:58:33;99821.00;;;24.53;50.07
61394;BME280;48555;50.952;-0.120;2023-08-01T12:01:03;99825.28;;;24.73;50.66
61394;BME280;48555;50.952;-0.120;2023-08-01T12:03:29;99826.88;;;24.92;49.77
61394;BME280;48555;50.952;-0.120;2023-08-01T12:06:05;99816.94;;;25.11;49.24
61394;BME280;48555;50.952;-0.120;2023-08-01T12:08:32;99822.16;;;25.06;48.18
61394;BME280;48555;50.952;-0.120;2023-08-01T12:10:58;99818.16;;;24.97;47.56
61394;BME280;48555;50.952;-0.120;2023-08-01T12:13:24;99814.91;;;24.95;47.99
61394;BME280;48555;50.952;-0.120;2023-08-01T12:15:51;99810.34;;;24.83;48.01
61394;BME280;48555;50.952;-0.120;2023-08-01T12:18:27;99811.00;;;24.79;47.75
61394;BME280;48555;50.952;-0.120;2023-08-01T12:20:53;99818.25;;;24.90;48.04
61394;BME280;48555;50.952;-0.120;2023-08-01T12:23:19;99813.41;;;24.99;48.19
61394;BME280;48555;50.952;-0.120;2023-08-01T12:25:45;99802.66;;;24.87;47.90
61394;BME280;48555;50.952;-0.120;2023-08-01T12:28:16;99813.25;;;24.93;47.69
61394;BME280;48555;50.952;-0.120;2023-08-01T12:30:42;99808.06;;;24.99;48.59
61394;BME280;48555;50.952;-0.120;2023-08-01T12:33:08;99804.16;;;25.13;49.88
61394;BME280;48555;50.952;-0.120;2023-08-01T12:35:33;99814.81;;;25.31;50.33
61394;BME280;48555;50.952;-0.120;2023-08-01T12:37:59;99814.13;;;25.36;49.87
61394;BME280;48555;50.952;-0.120;2023-08-01T12:40:24;99818.19;;;25.27;49.34
61394;BME280;48555;50.952;-0.120;2023-08-01T12:42:49;99818.72;;;25.17;49.40
61394;BME280;48555;50.952;-0.120;2023-08-01T12:45:15;99801.34;;;25.08;49.70
61394;BME280;48555;50.952;-0.120;2023-08-01T12:47:40;99802.53;;;25.12;50.10